sensor_id;sensor_type;location;lat;lon;timestamp;P1;durP1;ratioP1;P2;durP2;ratioP2
24301;SDS011;12421;49.732;20.078;2023-04-03T00:11:28;2.60;;;1.70;;
24301;SDS011;12421;49.732;20.078;2023-04-03T00:21:45;4.20;;;1.60;;
24301;SDS011;12421;49.732;20.078;2023-04-03T00:32:19;2.50;;;1.80;;
24301;SDS011;12421;49.732;20.078;2023-04-03T00:42:26;2.60;;;2.00;;
24301;SDS011;12421;49.732;20.078;2023-04-03T00:52:39;2.70;;;1.70;;
24301;SDS011;12421;49.732;20.078;2023-04-03T01:02:44;3.30;;;2.10;;
24301;SDS011;12421;49.732;20.078;2023-04-03T01:13:50;3.40;;;1.70;;
24301;SDS011;12421;49.732;20.078;2023-04-03T01:35:12;3.00;;;1.90;;
24301;SDS011;12421;49.732;20.078;2023-04-03T01:45:34;2.60;;;1.50;;
24301;SDS011;12421;49.732;20.078;2023-04-03T01:56:09;2.40;;;1.60;;
24301;SDS011;12421;49.732;20.078;2023-04-03T02:06:52;2.10;;;1.50;;
24301;SDS011;12421;49.732;20.078;2023-04-03T02:17:13;2.30;;;1.50;;
24301;SDS011;12421;49.732;20.078;2023-04-03T02:27:29;2.70;;;1.60;;
24301;SDS011;12421;49.732;20.078;2023-04-03T02:38:09;2.30;;;1.60;;
24301;SDS011;12421;49.732;20.078;2023-04-03T02:48:45;2.00;;;1.60;;
24301;SDS011;12421;49.732;20.078;2023-04-03T02:59:29;4.10;;;2.60;;
24301;SDS011;12421;49.732;20.078;2023-04-03T03:10:25;2.80;;;2.00;;
24301;SDS011;12421;49.732;20.078;2023-04-03T03:31:26;2.80;;;2.00;;
24301;SDS011;12421;49.732;20.078;2023-04-03T03:52:44;3.10;;;1.90;;
24301;SDS011;12421;49.732;20.078;2023-04-03T04:47:33;3.80;;;2.20;;
24301;SDS011;12421;49.732;20.078;2023-04-03T05:08:47;4.00;;;2.70;;
24301;SDS011;12421;49.732;20.078;2023-04-03T05:42:00;5.20;;;3.10;;
24301;SDS011;12421;49.732;20.078;2023-04-03T05:52:40;3.90;;;2.70;;
24301;SDS011;12421;49.732;20.078;2023-04-03T06:03:05;4.60;;;3.30;;
24301;SDS011;12421;49.732;20.078;2023-04-03T06:57:46;4.70;;;3.30;;
24301;SDS011;12421;49.732;20.078;2023-04-03T07:08:15;5.20;;;3.60;;
24301;SDS011;12421;49.732;20.078;2023-04-03T07:18:46;5.60;;;4.10;;
24301;SDS011;12421;49.732;20.078;2023-04-03T07:29:37;6.60;;;4.50;;
24301;SDS011;12421;49.732;20.078;2023-04-03T07:51:03;7.10;;;4.60;;
24301;SDS011;12421;49.732;20.078;2023-04-03T08:13:05;12.60;;;6.30;;
24301;SDS011;12421;49.732;20.078;2023-04-03T08:23:58;8.80;;;4.70;;
24301;SDS011;12421;49.732;20.078;2023-04-03T08:46:07;8.00;;;3.60;;
24301;SDS011;12421;49.732;20.078;2023-04-03T08:57:18;8.90;;;4.90;;
24301;SDS011;12421;49.732;20.078;2023-04-03T09:20:14;19.80;;;8.90;;
24301;SDS011;12421;49.732;20.078;2023-04-03T09:30:35;11.10;;;5.00;;
24301;SDS011;12421;49.732;20.078;2023-04-03T09:41:16;11.10;;;6.70;;
24301;SDS011;12421;49.732;20.078;2023-04-03T11:34:03;7.10;;;4.60;;
24301;SDS011;12421;49.732;20.078;2023-04-03T11:45:03;7.90;;;4.00;;
24301;SDS011;12421;49.732;20.078;2023-04-03T11:56:00;8.50;;;5.20;;
24301;SDS011;12421;49.732;20.078;2023-04-03T12:28:17;8.10;;;5.10;;
24301;SDS011;12421;49.732;20.078;2023-04-03T13:12:57;25.10;;;13.50;;
24301;SDS011;12421;49.732;20.078;2023-04-03T13:46:20;10.30;;;5.20;;
24301;SDS011;12421;49.732;20.078;2023-04-03T13:57:16;12.20;;;5.10;;
24301;SDS011;12421;49.732;20.078;2023-04-03T14:07:47;7.80;;;4.60;;
24301;SDS011;12421;49.732;20.078;2023-04-03T14:18:24;11.20;;;5.60;;
24301;SDS011;12421;49.732;20.078;2023-04-03T14:28:50;25.30;;;15.90;;
24301;SDS011;12421;49.732;20.078;2023-04-03T14:39:24;11.40;;;5.50;;
24301;SDS011;12421;49.732;20.078;2023-04-03T14:50:17;11.80;;;6.50;;
24301;SDS011;12421;49.732;20.078;2023-04-03T15:11:37;8.50;;;4.60;;
24301;SDS011;12421;49.732;20.078;2023-04-03T15:22:19;7.70;;;4.80;;
24301;SDS011;12421;49.732;20.078;2023-04-03T15:33:05;11.40;;;5.70;;
24301;SDS011;12421;49.732;20.078;2023-04-03T15:43:51;20.70;;;10.40;;
24301;SDS011;12421;49.732;20.078;2023-04-03T15:54:31;27.20;;;12.60;;
24301;SDS011;12421;49.732;20.078;2023-04-03T16:05:53;11.30;;;5.20;;
24301;SDS011;12421;49.732;20.078;2023-04-03T16:39:19;16.60;;;8.20;;
24301;SDS011;12421;49.732;20.078;2023-04-03T16:49:32;12.50;;;6.40;;
24301;SDS011;12421;49.732;20.078;2023-04-03T16:59:37;17.50;;;8.70;;
24301;SDS011;12421;49.732;20.078;2023-04-03T17:09:40;12.90;;;8.20;;
24301;SDS011;12421;49.732;20.078;2023-04-03T17:19:44;11.00;;;6.40;;
24301;SDS011;12421;49.732;20.078;2023-04-03T17:29:48;12.60;;;6.70;;
24301;SDS011;12421;49.732;20.078;2023-04-03T17:39:51;13.40;;;7.70;;
24301;SDS011;12421;49.732;20.078;2023-04-03T17:49:54;12.60;;;7.10;;
24301;SDS011;12421;49.732;20.078;2023-04-03T17:59:58;20.90;;;12.20;;
24301;SDS011;12421;49.732;20.078;2023-04-03T18:10:01;16.70;;;8.80;;
24301;SDS011;12421;49.732;20.078;2023-04-03T18:20:06;17.40;;;8.50;;
24301;SDS011;12421;49.732;20.078;2023-04-03T18:30:12;18.30;;;10.10;;
24301;SDS011;12421;49.732;20.078;2023-04-03T18:40:18;17.60;;;9.60;;
24301;SDS011;12421;49.732;20.078;2023-04-03T18:50:22;17.50;;;9.90;;
24301;SDS011;12421;49.732;20.078;2023-04-03T19:00:25;23.90;;;11.90;;
24301;SDS011;12421;49.732;20.078;2023-04-03T19:10:29;45.20;;;23.70;;
24301;SDS011;12421;49.732;20.078;2023-04-03T19:20:32;79.50;;;43.90;;
24301;SDS011;12421;49.732;20.078;2023-04-03T19:30:36;66.70;;;38.10;;
24301;SDS011;12421;49.732;20.078;2023-04-03T19:40:40;70.60;;;39.80;;
24301;SDS011;12421;49.732;20.078;2023-04-03T19:50:45;98.60;;;51.70;;
24301;SDS011;12421;49.732;20.078;2023-04-03T20:00:49;71.80;;;36.20;;
24301;SDS011;12421;49.732;20.078;2023-04-03T20:10:53;82.00;;;42.50;;
24301;SDS011;12421;49.732;20.078;2023-04-03T20:20:59;86.50;;;42.90;;
24301;SDS011;12421;49.732;20.078;2023-04-03T20:31:04;50.00;;;24.80;;
24301;SDS011;12421;49.732;20.078;2023-04-03T20:41:10;92.30;;;48.10;;
24301;SDS011;12421;49.732;20.078;2023-04-03T20:51:15;26.20;;;12.70;;
24301;SDS011;12421;49.732;20.078;2023-04-03T21:01:21;19.60;;;10.80;;
24301;SDS011;12421;49.732;20.078;2023-04-03T21:22:07;30.30;;;16.20;;
24301;SDS011;12421;49.732;20.078;2023-04-03T21:32:11;23.80;;;13.10;;
24301;SDS011;12421;49.732;20.078;2023-04-03T21:42:15;27.70;;;13.70;;
24301;SDS011;12421;49.732;20.078;2023-04-03T21:52:19;34.40;;;15.70;;
24301;SDS011;12421;49.732;20.078;2023-04-03T22:02:22;27.00;;;14.70;;
24301;SDS011;12421;49.732;20.078;2023-04-03T22:12:32;32.40;;;16.70;;
24301;SDS011;12421;49.732;20.078;2023-04-03T22:22:36;30.50;;;15.00;;
24301;SDS011;12421;49.732;20.078;2023-04-03T22:32:40;28.40;;;16.40;;
24301;SDS011;12421;49.732;20.078;2023-04-03T22:42:47;26.90;;;15.20;;
24301;SDS011;12421;49.732;20.078;2023-04-03T22:52:50;25.50;;;14.10;;
24301;SDS011;12421;49.732;20.078;2023-04-03T23:02:53;18.70;;;10.50;;
24301;SDS011;12421;49.732;20.078;2023-04-03T23:12:56;27.50;;;14.30;;
24301;SDS011;12421;49.732;20.078;2023-04-03T23:23:00;25.40;;;13.60;;
24301;SDS011;12421;49.732;20.078;2023-04-03T23:33:05;22.80;;;11.70;;
24301;SDS011;12421;49.732;20.078;2023-04-03T23:43:08;17.70;;;10.00;;
24301;SDS011;12421;49.732;20.078;2023-04-03T23:53:12;19.90;;;10.70;;
